Florø

Airport
ICAO code: 
ENFL
Summary
ICAO Region: 
EUR
Territory: 
Location: 
Florø, Sogn og Fjordane,
Elevation: 
37 ft
Coordinates: 
Aerial View: 
61° 35' 0.957" N, 5° 1' 28.993" E
Airport BS: 
Non Avian Wildlife Hazards to Aircraft
Airport WX: 
Low Level Turbulence
Metar
Observation
ENFL 170350Z AUTO 32027G39KT 9999NDV -SHRA FEW047/// BKN068/// 02/M04 Q1015
Station
Floro
Date/Time
2022-01-17 03:50:00
Wind direction
320°
Wind speed
27 kts
Lowest cloud amount
few clouds
Temperature
2°C
Dew point
-4°C
Humidity
64%
QNH
1015 hPa
Weather condition
n/a

Description

Airport serving the city of Florø, western Norway. The airport also has a heliport, used to transport personnel to oil platforms in the North Sea.

Climatology

Temperate Marine climate/Oceanic climate (Köppen climate classification Cfb). Moderately cool summer and comparatively warm winter with a temperature range of only 14°C.

Runways

Designator Length Width Surface Rops
7/25 1199 30 ASP No/No
Airport map: 
Aerial View: 

SKYbrary Partners:

Safety knowledge contributed by: